Strona główna
METAR-TAF:

METAR-TAF

Lotnisko :

Port lotniczy Portsmouth

Portsmouth, New Hampshire, Stany Zjednoczone

Szerokość geograficzna: 43-05N, Długość geograficzna: 070-49W, wysokość: 31 m

Aktualna obserwacja pogody

Raport powstał 42 minut temu, godzina 00:56 UTC
Wiatr 7 kt od zachodnio-północny zachód
Temperatura -9°C
Wilgotność 37%
Ciśnienie 1023 hPa
Widzialność: 16.1 km
bezchmurnie

METAR: KPSM 210056Z 29007KT 10SM CLR M09/M21 A3022 RMK AO2A SLP236 WND DATA ESTMD ALSTG/SLP ESTMD T10871209

czas: 20:38 (01:38 UTC)

Prognoza

Raport powstał 2 godziny i 18 minut temu, godzina 23:20 UTC
Prognoza ważna od 21 godzina 00 UTC do 21 godzina 24 UTC
Wiatr 6 kt od zachodnio-północny zachód
Widzialność: 10 km
bezchmurnie

TAF: KPSM 202320Z 2100/2124 30006KT P6SM SKC

Obserwacja i prognoza pogody dla ponad 4000 lotnisk (raport METAR i TAF).

Dostępne stacje oznaczono żółtymi i czerwonymi punktami na mapie.

Najedź kursorem aby zobaczyć nazwę stacji.

Kliknij aby zobaczyć obserwacje i prognozy pogody.

Aby zmienić mapę: kliknij na zielony przycisk z czarnym krzyżykiem, aby powiększyć; na zielony przycisk z myślnikiem, aby pomniejszyć; na zielone strzałki, aby przejść do map sąsiednich.


METAR-TAF: